sensor_id;sensor_type;location;lat;lon;timestamp;P1;durP1;ratioP1;P2;durP2;ratioP2
1366;SDS011;16877;48.810;9.282;2023-08-20T00:01:56;10.53;;;9.53;;
1366;SDS011;16877;48.810;9.282;2023-08-20T00:04:25;9.70;;;8.83;;
1366;SDS011;16877;48.810;9.282;2023-08-20T00:06:53;9.17;;;8.30;;
1366;SDS011;16877;48.810;9.282;2023-08-20T00:09:21;10.30;;;9.30;;
1366;SDS011;16877;48.810;9.282;2023-08-20T00:11:54;9.20;;;8.40;;
1366;SDS011;16877;48.810;9.282;2023-08-20T00:14:24;10.40;;;9.40;;
1366;SDS011;16877;48.810;9.282;2023-08-20T00:17:18;10.47;;;9.47;;
1366;SDS011;16877;48.810;9.282;2023-08-20T00:19:45;9.20;;;8.40;;
1366;SDS011;16877;48.810;9.282;2023-08-20T00:22:14;9.27;;;8.47;;
1366;SDS011;16877;48.810;9.282;2023-08-20T00:24:42;10.63;;;9.60;;
1366;SDS011;16877;48.810;9.282;2023-08-20T00:27:12;9.30;;;8.33;;
1366;SDS011;16877;48.810;9.282;2023-08-20T00:29:39;9.47;;;8.67;;
1366;SDS011;16877;48.810;9.282;2023-08-20T00:32:07;9.63;;;8.80;;
1366;SDS011;16877;48.810;9.282;2023-08-20T00:34:34;9.90;;;8.90;;
1366;SDS011;16877;48.810;9.282;2023-08-20T00:37:01;9.00;;;8.10;;
1366;SDS011;16877;48.810;9.282;2023-08-20T00:39:29;9.30;;;8.40;;
1366;SDS011;16877;48.810;9.282;2023-08-20T00:41:57;9.80;;;8.77;;
1366;SDS011;16877;48.810;9.282;2023-08-20T00:44:27;9.47;;;8.60;;
1366;SDS011;16877;48.810;9.282;2023-08-20T00:46:54;9.30;;;8.43;;
1366;SDS011;16877;48.810;9.282;2023-08-20T00:49:22;9.67;;;8.67;;
1366;SDS011;16877;48.810;9.282;2023-08-20T00:51:49;9.43;;;8.53;;
1366;SDS011;16877;48.810;9.282;2023-08-20T00:54:17;8.70;;;8.00;;
1366;SDS011;16877;48.810;9.282;2023-08-20T00:56:46;9.67;;;8.80;;
1366;SDS011;16877;48.810;9.282;2023-08-20T00:59:15;9.33;;;8.53;;
1366;SDS011;16877;48.810;9.282;2023-08-20T01:01:45;9.50;;;8.70;;
1366;SDS011;16877;48.810;9.282;2023-08-20T01:04:13;11.20;;;8.27;;
1366;SDS011;16877;48.810;9.282;2023-08-20T01:06:44;10.70;;;9.70;;
1366;SDS011;16877;48.810;9.282;2023-08-20T01:09:21;9.03;;;8.30;;
1366;SDS011;16877;48.810;9.282;2023-08-20T01:11:57;8.67;;;7.77;;
1366;SDS011;16877;48.810;9.282;2023-08-20T01:14:26;9.67;;;8.57;;
1366;SDS011;16877;48.810;9.282;2023-08-20T01:16:55;8.97;;;8.20;;
1366;SDS011;16877;48.810;9.282;2023-08-20T01:19:22;9.50;;;8.60;;
1366;SDS011;16877;48.810;9.282;2023-08-20T01:21:55;9.03;;;7.70;;
1366;SDS011;16877;48.810;9.282;2023-08-20T01:24:36;9.50;;;8.60;;
1366;SDS011;16877;48.810;9.282;2023-08-20T01:27:17;8.03;;;7.23;;
1366;SDS011;16877;48.810;9.282;2023-08-20T01:29:54;9.20;;;8.40;;
1366;SDS011;16877;48.810;9.282;2023-08-20T01:32:22;7.73;;;7.07;;
1366;SDS011;16877;48.810;9.282;2023-08-20T01:34:51;8.93;;;8.23;;
1366;SDS011;16877;48.810;9.282;2023-08-20T01:37:19;8.90;;;8.10;;
1366;SDS011;16877;48.810;9.282;2023-08-20T01:39:48;9.10;;;8.27;;
1366;SDS011;16877;48.810;9.282;2023-08-20T01:42:15;9.40;;;8.53;;
1366;SDS011;16877;48.810;9.282;2023-08-20T01:44:43;8.83;;;8.13;;
1366;SDS011;16877;48.810;9.282;2023-08-20T01:47:12;9.57;;;8.57;;
1366;SDS011;16877;48.810;9.282;2023-08-20T01:49:40;8.80;;;8.00;;
1366;SDS011;16877;48.810;9.282;2023-08-20T01:52:09;11.70;;;9.00;;
1366;SDS011;16877;48.810;9.282;2023-08-20T01:54:37;9.13;;;8.33;;
1366;SDS011;16877;48.810;9.282;2023-08-20T01:57:08;9.30;;;8.27;;
1366;SDS011;16877;48.810;9.282;2023-08-20T01:59:38;9.60;;;8.80;;
1366;SDS011;16877;48.810;9.282;2023-08-20T02:02:05;9.40;;;8.50;;
1366;SDS011;16877;48.810;9.282;2023-08-20T02:04:34;9.20;;;7.73;;
1366;SDS011;16877;48.810;9.282;2023-08-20T02:07:02;9.13;;;8.30;;
1366;SDS011;16877;48.810;9.282;2023-08-20T02:09:29;12.63;;;8.50;;
1366;SDS011;16877;48.810;9.282;2023-08-20T02:11:56;9.20;;;8.30;;
1366;SDS011;16877;48.810;9.282;2023-08-20T02:14:24;10.37;;;9.03;;
1366;SDS011;16877;48.810;9.282;2023-08-20T02:16:52;9.13;;;8.27;;
1366;SDS011;16877;48.810;9.282;2023-08-20T02:19:19;9.00;;;8.20;;
1366;SDS011;16877;48.810;9.282;2023-08-20T02:21:48;12.40;;;9.30;;
1366;SDS011;16877;48.810;9.282;2023-08-20T02:24:16;8.43;;;7.70;;
1366;SDS011;16877;48.810;9.282;2023-08-20T02:26:43;9.23;;;8.43;;
1366;SDS011;16877;48.810;9.282;2023-08-20T02:29:25;8.90;;;8.00;;
1366;SDS011;16877;48.810;9.282;2023-08-20T02:31:52;9.23;;;8.43;;
1366;SDS011;16877;48.810;9.282;2023-08-20T02:34:20;9.20;;;8.47;;
1366;SDS011;16877;48.810;9.282;2023-08-20T02:36:49;9.10;;;8.30;;
1366;SDS011;16877;48.810;9.282;2023-08-20T02:39:16;9.10;;;8.30;;
1366;SDS011;16877;48.810;9.282;2023-08-20T02:41:45;9.77;;;8.80;;
1366;SDS011;16877;48.810;9.282;2023-08-20T02:44:12;9.03;;;8.23;;
1366;SDS011;16877;48.810;9.282;2023-08-20T02:46:40;9.00;;;8.20;;
1366;SDS011;16877;48.810;9.282;2023-08-20T02:49:09;9.53;;;8.60;;
1366;SDS011;16877;48.810;9.282;2023-08-20T02:51:37;8.97;;;8.17;;
1366;SDS011;16877;48.810;9.282;2023-08-20T02:54:08;11.10;;;9.00;;
1366;SDS011;16877;48.810;9.282;2023-08-20T02:56:35;9.20;;;8.33;;
1366;SDS011;16877;48.810;9.282;2023-08-20T02:59:03;11.70;;;8.03;;
1366;SDS011;16877;48.810;9.282;2023-08-20T03:01:30;9.93;;;8.93;;
1366;SDS011;16877;48.810;9.282;2023-08-20T03:03:58;10.33;;;9.43;;
1366;SDS011;16877;48.810;9.282;2023-08-20T03:06:25;9.30;;;8.40;;
1366;SDS011;16877;48.810;9.282;2023-08-20T03:08:52;10.13;;;9.13;;
1366;SDS011;16877;48.810;9.282;2023-08-20T03:11:21;9.53;;;8.63;;
1366;SDS011;16877;48.810;9.282;2023-08-20T03:13:49;9.13;;;8.27;;
1366;SDS011;16877;48.810;9.282;2023-08-20T03:16:16;9.63;;;8.80;;
1366;SDS011;16877;48.810;9.282;2023-08-20T03:18:44;11.53;;;8.47;;
1366;SDS011;16877;48.810;9.282;2023-08-20T03:21:11;8.20;;;7.47;;
1366;SDS011;16877;48.810;9.282;2023-08-20T03:23:38;9.83;;;9.00;;
1366;SDS011;16877;48.810;9.282;2023-08-20T03:26:08;10.60;;;8.50;;
1366;SDS011;16877;48.810;9.282;2023-08-20T03:28:37;8.70;;;7.90;;
1366;SDS011;16877;48.810;9.282;2023-08-20T03:31:04;9.60;;;8.77;;
1366;SDS011;16877;48.810;9.282;2023-08-20T03:33:31;9.60;;;8.70;;
1366;SDS011;16877;48.810;9.282;2023-08-20T03:35:59;8.80;;;8.10;;
1366;SDS011;16877;48.810;9.282;2023-08-20T03:38:26;9.90;;;7.50;;
1366;SDS011;16877;48.810;9.282;2023-08-20T03:40:55;7.93;;;7.20;;
1366;SDS011;16877;48.810;9.282;2023-08-20T03:43:21;10.93;;;9.00;;
1366;SDS011;16877;48.810;9.282;2023-08-20T03:45:51;8.67;;;7.73;;
1366;SDS011;16877;48.810;9.282;2023-08-20T03:48:18;9.87;;;8.87;;
1366;SDS011;16877;48.810;9.282;2023-08-20T03:50:46;8.07;;;7.37;;
1366;SDS011;16877;48.810;9.282;2023-08-20T03:53:13;8.57;;;7.83;;
1366;SDS011;16877;48.810;9.282;2023-08-20T03:55:41;9.37;;;8.47;;
1366;SDS011;16877;48.810;9.282;2023-08-20T03:58:13;9.20;;;8.20;;
1366;SDS011;16877;48.810;9.282;2023-08-20T04:00:41;8.53;;;7.63;;
1366;SDS011;16877;48.810;9.282;2023-08-20T04:03:10;11.50;;;9.10;;
1366;SDS011;16877;48.810;9.282;2023-08-20T04:05:37;10.17;;;9.20;;
1366;SDS011;16877;48.810;9.282;2023-08-20T04:08:04;10.87;;;9.87;;
1366;SDS011;16877;48.810;9.282;2023-08-20T04:10:32;8.93;;;8.13;;
1366;SDS011;16877;48.810;9.282;2023-08-20T04:12:59;8.27;;;7.57;;
1366;SDS011;16877;48.810;9.282;2023-08-20T04:15:27;8.80;;;8.07;;
1366;SDS011;16877;48.810;9.282;2023-08-20T04:17:54;8.20;;;7.50;;
1366;SDS011;16877;48.810;9.282;2023-08-20T04:20:24;9.13;;;8.23;;
1366;SDS011;16877;48.810;9.282;2023-08-20T04:22:51;9.10;;;8.40;;
1366;SDS011;16877;48.810;9.282;2023-08-20T04:25:19;9.33;;;8.43;;
1366;SDS011;16877;48.810;9.282;2023-08-20T04:27:46;8.30;;;7.57;;
1366;SDS011;16877;48.810;9.282;2023-08-20T04:30:14;9.13;;;8.33;;
1366;SDS011;16877;48.810;9.282;2023-08-20T04:32:41;9.13;;;8.30;;
1366;SDS011;16877;48.810;9.282;2023-08-20T04:35:09;9.10;;;8.20;;
1366;SDS011;16877;48.810;9.282;2023-08-20T04:37:37;8.60;;;7.90;;
1366;SDS011;16877;48.810;9.282;2023-08-20T04:40:06;9.13;;;8.33;;
1366;SDS011;16877;48.810;9.282;2023-08-20T04:42:34;9.37;;;8.43;;
1366;SDS011;16877;48.810;9.282;2023-08-20T04:45:01;10.70;;;8.93;;
1366;SDS011;16877;48.810;9.282;2023-08-20T04:47:29;9.70;;;8.90;;
1366;SDS011;16877;48.810;9.282;2023-08-20T04:49:57;9.57;;;8.77;;
1366;SDS011;16877;48.810;9.282;2023-08-20T04:52:24;7.90;;;7.17;;
1366;SDS011;16877;48.810;9.282;2023-08-20T04:54:53;8.43;;;7.73;;
1366;SDS011;16877;48.810;9.282;2023-08-20T04:57:21;8.83;;;7.67;;
1366;SDS011;16877;48.810;9.282;2023-08-20T04:59:49;9.10;;;8.20;;
1366;SDS011;16877;48.810;9.282;2023-08-20T05:02:18;9.47;;;8.57;;
1366;SDS011;16877;48.810;9.282;2023-08-20T05:04:46;8.47;;;7.67;;
1366;SDS011;16877;48.810;9.282;2023-08-20T05:07:13;8.80;;;7.57;;
1366;SDS011;16877;48.810;9.282;2023-08-20T05:09:41;7.80;;;7.10;;
1366;SDS011;16877;48.810;9.282;2023-08-20T05:12:10;9.10;;;8.20;;
1366;SDS011;16877;48.810;9.282;2023-08-20T05:14:42;8.27;;;7.57;;
1366;SDS011;16877;48.810;9.282;2023-08-20T05:17:09;8.13;;;7.33;;
1366;SDS011;16877;48.810;9.282;2023-08-20T05:19:36;9.40;;;8.50;;
1366;SDS011;16877;48.810;9.282;2023-08-20T05:22:06;8.50;;;7.80;;
1366;SDS011;16877;48.810;9.282;2023-08-20T05:24:42;9.00;;;8.20;;
1366;SDS011;16877;48.810;9.282;2023-08-20T05:27:13;8.30;;;7.50;;
1366;SDS011;16877;48.810;9.282;2023-08-20T05:29:42;8.60;;;7.90;;
1366;SDS011;16877;48.810;9.282;2023-08-20T05:32:10;8.80;;;8.00;;
1366;SDS011;16877;48.810;9.282;2023-08-20T05:34:38;10.23;;;9.10;;
1366;SDS011;16877;48.810;9.282;2023-08-20T05:37:06;8.90;;;8.10;;
1366;SDS011;16877;48.810;9.282;2023-08-20T05:39:36;9.47;;;8.40;;
1366;SDS011;16877;48.810;9.282;2023-08-20T05:42:04;10.07;;;9.17;;
1366;SDS011;16877;48.810;9.282;2023-08-20T05:44:34;8.30;;;7.60;;
1366;SDS011;16877;48.810;9.282;2023-08-20T05:47:01;8.97;;;8.23;;
1366;SDS011;16877;48.810;9.282;2023-08-20T05:49:30;9.30;;;8.50;;
1366;SDS011;16877;48.810;9.282;2023-08-20T05:51:58;8.10;;;7.47;;
1366;SDS011;16877;48.810;9.282;2023-08-20T05:54:40;9.73;;;8.77;;
1366;SDS011;16877;48.810;9.282;2023-08-20T05:57:08;8.47;;;7.77;;
1366;SDS011;16877;48.810;9.282;2023-08-20T06:02:21;9.83;;;9.03;;
1366;SDS011;16877;48.810;9.282;2023-08-20T06:04:49;9.20;;;8.30;;
1366;SDS011;16877;48.810;9.282;2023-08-20T06:07:17;11.33;;;8.07;;
1366;SDS011;16877;48.810;9.282;2023-08-20T06:09:47;8.90;;;8.10;;
1366;SDS011;16877;48.810;9.282;2023-08-20T06:12:22;9.07;;;8.17;;
1366;SDS011;16877;48.810;9.282;2023-08-20T06:14:55;8.97;;;8.27;;
1366;SDS011;16877;48.810;9.282;2023-08-20T06:17:23;8.03;;;7.40;;
1366;SDS011;16877;48.810;9.282;2023-08-20T06:19:56;10.60;;;8.30;;
1366;SDS011;16877;48.810;9.282;2023-08-20T06:22:25;9.87;;;8.97;;
1366;SDS011;16877;48.810;9.282;2023-08-20T06:24:52;9.33;;;7.97;;
1366;SDS011;16877;48.810;9.282;2023-08-20T06:27:19;9.67;;;8.87;;
1366;SDS011;16877;48.810;9.282;2023-08-20T06:29:47;7.97;;;7.37;;
1366;SDS011;16877;48.810;9.282;2023-08-20T06:32:17;8.20;;;7.40;;
1366;SDS011;16877;48.810;9.282;2023-08-20T06:34:44;9.67;;;8.87;;
1366;SDS011;16877;48.810;9.282;2023-08-20T06:37:20;9.47;;;8.67;;
1366;SDS011;16877;48.810;9.282;2023-08-20T06:39:48;9.50;;;8.60;;
1366;SDS011;16877;48.810;9.282;2023-08-20T06:42:16;9.83;;;9.03;;
1366;SDS011;16877;48.810;9.282;2023-08-20T06:44:43;10.53;;;9.53;;
1366;SDS011;16877;48.810;9.282;2023-08-20T06:47:11;12.10;;;11.13;;
1366;SDS011;16877;48.810;9.282;2023-08-20T06:49:44;11.17;;;10.27;;
1366;SDS011;16877;48.810;9.282;2023-08-20T06:52:11;11.70;;;10.57;;
1366;SDS011;16877;48.810;9.282;2023-08-20T06:54:38;10.33;;;9.03;;
1366;SDS011;16877;48.810;9.282;2023-08-20T06:57:06;8.90;;;8.17;;
1366;SDS011;16877;48.810;9.282;2023-08-20T06:59:34;10.17;;;9.23;;
1366;SDS011;16877;48.810;9.282;2023-08-20T07:02:01;10.17;;;9.20;;
1366;SDS011;16877;48.810;9.282;2023-08-20T07:04:29;10.93;;;9.83;;
1366;SDS011;16877;48.810;9.282;2023-08-20T07:06:58;9.77;;;8.87;;
1366;SDS011;16877;48.810;9.282;2023-08-20T07:09:24;9.37;;;8.47;;
1366;SDS011;16877;48.810;9.282;2023-08-20T07:11:52;10.27;;;9.13;;
1366;SDS011;16877;48.810;9.282;2023-08-20T07:14:22;9.27;;;8.57;;
1366;SDS011;16877;48.810;9.282;2023-08-20T07:16:50;9.27;;;8.47;;
1366;SDS011;16877;48.810;9.282;2023-08-20T07:19:18;10.40;;;9.40;;
1366;SDS011;16877;48.810;9.282;2023-08-20T07:21:45;11.53;;;9.33;;
1366;SDS011;16877;48.810;9.282;2023-08-20T07:24:15;9.17;;;8.37;;
1366;SDS011;16877;48.810;9.282;2023-08-20T07:26:42;10.00;;;8.97;;
1366;SDS011;16877;48.810;9.282;2023-08-20T07:29:10;7.67;;;7.07;;
1366;SDS011;16877;48.810;9.282;2023-08-20T07:31:37;10.30;;;9.40;;
1366;SDS011;16877;48.810;9.282;2023-08-20T07:34:05;11.73;;;10.73;;
1366;SDS011;16877;48.810;9.282;2023-08-20T07:36:32;9.90;;;9.00;;
1366;SDS011;16877;48.810;9.282;2023-08-20T07:39:00;11.17;;;10.17;;
1366;SDS011;16877;48.810;9.282;2023-08-20T07:41:29;10.50;;;9.60;;
1366;SDS011;16877;48.810;9.282;2023-08-20T07:43:59;9.30;;;8.50;;
1366;SDS011;16877;48.810;9.282;2023-08-20T07:46:32;11.13;;;10.07;;
1366;SDS011;16877;48.810;9.282;2023-08-20T07:49:08;9.87;;;9.07;;
1366;SDS011;16877;48.810;9.282;2023-08-20T07:51:35;10.83;;;9.40;;
1366;SDS011;16877;48.810;9.282;2023-08-20T07:54:03;10.00;;;9.00;;
1366;SDS011;16877;48.810;9.282;2023-08-20T07:56:32;10.70;;;9.80;;
1366;SDS011;16877;48.810;9.282;2023-08-20T07:59:00;10.40;;;9.47;;
1366;SDS011;16877;48.810;9.282;2023-08-20T08:01:26;9.53;;;8.60;;
1366;SDS011;16877;48.810;9.282;2023-08-20T08:03:54;10.60;;;9.50;;
1366;SDS011;16877;48.810;9.282;2023-08-20T08:06:21;11.53;;;10.53;;
1366;SDS011;16877;48.810;9.282;2023-08-20T08:08:49;9.23;;;8.40;;
1366;SDS011;16877;48.810;9.282;2023-08-20T08:11:16;10.27;;;9.27;;
1366;SDS011;16877;48.810;9.282;2023-08-20T08:13:45;9.73;;;8.83;;
1366;SDS011;16877;48.810;9.282;2023-08-20T08:16:15;10.83;;;8.80;;
1366;SDS011;16877;48.810;9.282;2023-08-20T08:18:45;9.90;;;8.90;;
1366;SDS011;16877;48.810;9.282;2023-08-20T08:21:13;9.90;;;9.10;;
1366;SDS011;16877;48.810;9.282;2023-08-20T08:23:40;11.70;;;10.53;;
1366;SDS011;16877;48.810;9.282;2023-08-20T08:26:07;13.90;;;11.50;;
1366;SDS011;16877;48.810;9.282;2023-08-20T08:28:34;10.27;;;9.27;;
1366;SDS011;16877;48.810;9.282;2023-08-20T08:31:03;10.73;;;9.80;;
1366;SDS011;16877;48.810;9.282;2023-08-20T08:33:33;11.87;;;10.80;;
1366;SDS011;16877;48.810;9.282;2023-08-20T08:36:01;11.37;;;10.47;;
1366;SDS011;16877;48.810;9.282;2023-08-20T08:38:28;10.80;;;9.50;;
1366;SDS011;16877;48.810;9.282;2023-08-20T08:40:56;11.17;;;10.27;;
1366;SDS011;16877;48.810;9.282;2023-08-20T08:43:24;10.73;;;9.80;;
1366;SDS011;16877;48.810;9.282;2023-08-20T08:45:53;10.63;;;9.60;;
1366;SDS011;16877;48.810;9.282;2023-08-20T08:48:24;10.37;;;9.47;;
1366;SDS011;16877;48.810;9.282;2023-08-20T08:50:52;10.97;;;10.07;;
1366;SDS011;16877;48.810;9.282;2023-08-20T08:53:21;10.47;;;9.37;;
1366;SDS011;16877;48.810;9.282;2023-08-20T08:55:51;11.87;;;10.97;;
1366;SDS011;16877;48.810;9.282;2023-08-20T08:58:20;10.17;;;9.30;;
1366;SDS011;16877;48.810;9.282;2023-08-20T09:00:47;11.33;;;10.23;;
1366;SDS011;16877;48.810;9.282;2023-08-20T09:03:15;11.40;;;10.33;;
1366;SDS011;16877;48.810;9.282;2023-08-20T09:05:48;10.93;;;9.93;;
1366;SDS011;16877;48.810;9.282;2023-08-20T09:08:19;10.93;;;9.80;;
1366;SDS011;16877;48.810;9.282;2023-08-20T09:10:49;10.57;;;9.00;;
1366;SDS011;16877;48.810;9.282;2023-08-20T09:13:17;11.13;;;10.00;;
1366;SDS011;16877;48.810;9.282;2023-08-20T09:15:50;9.20;;;8.40;;
1366;SDS011;16877;48.810;9.282;2023-08-20T09:18:18;10.50;;;9.53;;
1366;SDS011;16877;48.810;9.282;2023-08-20T09:20:48;10.97;;;9.97;;
1366;SDS011;16877;48.810;9.282;2023-08-20T09:23:16;10.37;;;9.47;;
1366;SDS011;16877;48.810;9.282;2023-08-20T09:25:44;10.87;;;9.80;;
1366;SDS011;16877;48.810;9.282;2023-08-20T09:28:11;11.83;;;10.73;;
1366;SDS011;16877;48.810;9.282;2023-08-20T09:30:40;11.17;;;10.17;;
1366;SDS011;16877;48.810;9.282;2023-08-20T09:33:21;11.43;;;10.30;;
1366;SDS011;16877;48.810;9.282;2023-08-20T09:35:51;9.60;;;8.60;;
1366;SDS011;16877;48.810;9.282;2023-08-20T09:38:19;9.83;;;8.83;;
1366;SDS011;16877;48.810;9.282;2023-08-20T09:40:47;9.47;;;8.73;;
1366;SDS011;16877;48.810;9.282;2023-08-20T09:43:15;10.80;;;9.37;;
1366;SDS011;16877;48.810;9.282;2023-08-20T09:45:43;10.70;;;9.70;;
1366;SDS011;16877;48.810;9.282;2023-08-20T09:48:12;11.00;;;10.07;;
1366;SDS011;16877;48.810;9.282;2023-08-20T09:50:42;11.07;;;9.97;;
1366;SDS011;16877;48.810;9.282;2023-08-20T09:53:21;10.33;;;9.43;;
1366;SDS011;16877;48.810;9.282;2023-08-20T09:55:52;9.90;;;9.00;;
1366;SDS011;16877;48.810;9.282;2023-08-20T09:58:25;10.27;;;9.27;;
1366;SDS011;16877;48.810;9.282;2023-08-20T10:00:55;11.03;;;10.03;;
1366;SDS011;16877;48.810;9.282;2023-08-20T10:03:23;12.33;;;11.13;;
1366;SDS011;16877;48.810;9.282;2023-08-20T10:05:51;11.30;;;10.10;;
1366;SDS011;16877;48.810;9.282;2023-08-20T10:08:20;10.97;;;9.93;;
1366;SDS011;16877;48.810;9.282;2023-08-20T10:10:47;12.00;;;10.83;;
1366;SDS011;16877;48.810;9.282;2023-08-20T10:13:15;10.83;;;9.87;;
1366;SDS011;16877;48.810;9.282;2023-08-20T10:15:44;10.53;;;9.53;;
1366;SDS011;16877;48.810;9.282;2023-08-20T10:18:18;9.80;;;8.87;;
1366;SDS011;16877;48.810;9.282;2023-08-20T10:20:46;11.30;;;9.90;;
1366;SDS011;16877;48.810;9.282;2023-08-20T10:23:19;12.40;;;11.20;;
1366;SDS011;16877;48.810;9.282;2023-08-20T10:25:51;9.97;;;9.03;;
1366;SDS011;16877;48.810;9.282;2023-08-20T10:28:20;10.60;;;9.70;;
1366;SDS011;16877;48.810;9.282;2023-08-20T10:31:04;9.37;;;8.43;;
1366;SDS011;16877;48.810;9.282;2023-08-20T10:33:33;10.33;;;9.33;;
1366;SDS011;16877;48.810;9.282;2023-08-20T10:36:06;10.07;;;9.10;;
1366;SDS011;16877;48.810;9.282;2023-08-20T10:38:37;8.77;;;7.87;;
1366;SDS011;16877;48.810;9.282;2023-08-20T10:41:08;10.00;;;9.10;;
1366;SDS011;16877;48.810;9.282;2023-08-20T10:43:36;9.27;;;8.37;;
1366;SDS011;16877;48.810;9.282;2023-08-20T10:46:14;9.00;;;8.10;;
1366;SDS011;16877;48.810;9.282;2023-08-20T10:48:43;9.03;;;8.23;;
1366;SDS011;16877;48.810;9.282;2023-08-20T10:51:14;9.23;;;8.27;;
1366;SDS011;16877;48.810;9.282;2023-08-20T10:54:02;8.93;;;7.87;;
1366;SDS011;16877;48.810;9.282;2023-08-20T10:56:37;10.40;;;9.27;;
1366;SDS011;16877;48.810;9.282;2023-08-20T10:59:06;8.77;;;7.95;;
1366;SDS011;16877;48.810;9.282;2023-08-20T11:01:34;9.27;;;8.40;;
1366;SDS011;16877;48.810;9.282;2023-08-20T11:04:02;8.90;;;8.10;;
1366;SDS011;16877;48.810;9.282;2023-08-20T11:06:32;9.40;;;8.43;;
1366;SDS011;16877;48.810;9.282;2023-08-20T11:09:02;8.57;;;7.60;;
1366;SDS011;16877;48.810;9.282;2023-08-20T11:11:30;10.75;;;8.63;;
1366;SDS011;16877;48.810;9.282;2023-08-20T11:14:03;8.40;;;7.63;;
1366;SDS011;16877;48.810;9.282;2023-08-20T11:16:32;8.18;;;7.47;;
1366;SDS011;16877;48.810;9.282;2023-08-20T11:19:02;7.88;;;7.07;;
1366;SDS011;16877;48.810;9.282;2023-08-20T11:21:33;8.35;;;7.55;;
1366;SDS011;16877;48.810;9.282;2023-08-20T11:24:38;7.18;;;6.50;;
1366;SDS011;16877;48.810;9.282;2023-08-20T11:27:08;9.05;;;7.43;;
1366;SDS011;16877;48.810;9.282;2023-08-20T11:29:37;8.00;;;7.20;;
1366;SDS011;16877;48.810;9.282;2023-08-20T11:32:08;7.55;;;6.18;;
1366;SDS011;16877;48.810;9.282;2023-08-20T11:34:43;6.88;;;6.18;;
1366;SDS011;16877;48.810;9.282;2023-08-20T11:37:17;6.85;;;6.22;;
1366;SDS011;16877;48.810;9.282;2023-08-20T11:39:58;7.63;;;6.82;;
1366;SDS011;16877;48.810;9.282;2023-08-20T11:42:38;9.15;;;6.35;;
1366;SDS011;16877;48.810;9.282;2023-08-20T11:45:09;7.85;;;6.70;;
1366;SDS011;16877;48.810;9.282;2023-08-20T11:47:40;6.05;;;5.55;;
1366;SDS011;16877;48.810;9.282;2023-08-20T11:50:09;6.97;;;6.38;;
1366;SDS011;16877;48.810;9.282;2023-08-20T11:52:38;7.78;;;6.97;;
1366;SDS011;16877;48.810;9.282;2023-08-20T11:55:08;7.63;;;6.82;;
1366;SDS011;16877;48.810;9.282;2023-08-20T11:57:35;8.15;;;7.45;;
1366;SDS011;16877;48.810;9.282;2023-08-20T12:00:03;6.95;;;6.35;;
1366;SDS011;16877;48.810;9.282;2023-08-20T12:02:34;8.23;;;7.47;;
1366;SDS011;16877;48.810;9.282;2023-08-20T12:05:01;7.80;;;7.07;;
1366;SDS011;16877;48.810;9.282;2023-08-20T12:07:29;6.65;;;6.05;;
1366;SDS011;16877;48.810;9.282;2023-08-20T12:09:56;7.40;;;6.68;;
1366;SDS011;16877;48.810;9.282;2023-08-20T12:12:26;7.35;;;6.22;;
1366;SDS011;16877;48.810;9.282;2023-08-20T12:14:56;7.40;;;6.10;;
1366;SDS011;16877;48.810;9.282;2023-08-20T12:17:23;6.85;;;6.25;;
1366;SDS011;16877;48.810;9.282;2023-08-20T12:19:52;6.40;;;5.80;;
1366;SDS011;16877;48.810;9.282;2023-08-20T12:22:19;7.30;;;5.95;;
1366;SDS011;16877;48.810;9.282;2023-08-20T12:24:53;7.13;;;6.40;;
1366;SDS011;16877;48.810;9.282;2023-08-20T12:27:20;6.75;;;6.05;;
1366;SDS011;16877;48.810;9.282;2023-08-20T12:29:50;10.57;;;6.60;;
1366;SDS011;16877;48.810;9.282;2023-08-20T12:32:18;7.32;;;6.63;;
1366;SDS011;16877;48.810;9.282;2023-08-20T12:34:45;7.57;;;5.90;;
1366;SDS011;16877;48.810;9.282;2023-08-20T12:37:13;7.07;;;5.70;;
1366;SDS011;16877;48.810;9.282;2023-08-20T12:39:40;6.47;;;5.85;;
1366;SDS011;16877;48.810;9.282;2023-08-20T12:42:07;6.40;;;5.80;;
1366;SDS011;16877;48.810;9.282;2023-08-20T12:44:35;5.95;;;5.35;;
1366;SDS011;16877;48.810;9.282;2023-08-20T12:47:04;7.57;;;6.00;;
1366;SDS011;16877;48.810;9.282;2023-08-20T12:49:31;6.32;;;5.72;;
1366;SDS011;16877;48.810;9.282;2023-08-20T12:51:59;9.45;;;5.53;;
1366;SDS011;16877;48.810;9.282;2023-08-20T12:54:26;6.53;;;5.93;;
1366;SDS011;16877;48.810;9.282;2023-08-20T12:56:54;5.43;;;4.75;;
1366;SDS011;16877;48.810;9.282;2023-08-20T12:59:23;5.90;;;4.93;;
1366;SDS011;16877;48.810;9.282;2023-08-20T13:01:50;5.22;;;4.75;;
1366;SDS011;16877;48.810;9.282;2023-08-20T13:04:20;5.65;;;5.05;;
1366;SDS011;16877;48.810;9.282;2023-08-20T13:06:47;5.47;;;4.97;;
1366;SDS011;16877;48.810;9.282;2023-08-20T13:09:15;6.43;;;5.35;;
1366;SDS011;16877;48.810;9.282;2023-08-20T13:11:43;6.55;;;5.95;;
1366;SDS011;16877;48.810;9.282;2023-08-20T13:14:14;6.18;;;5.68;;
1366;SDS011;16877;48.810;9.282;2023-08-20T13:16:42;6.70;;;6.00;;
1366;SDS011;16877;48.810;9.282;2023-08-20T13:19:10;6.05;;;5.07;;
1366;SDS011;16877;48.810;9.282;2023-08-20T13:21:40;8.52;;;5.28;;
1366;SDS011;16877;48.810;9.282;2023-08-20T13:24:07;5.60;;;4.90;;
1366;SDS011;16877;48.810;9.282;2023-08-20T13:26:35;6.50;;;5.18;;
1366;SDS011;16877;48.810;9.282;2023-08-20T13:29:02;4.75;;;4.35;;
1366;SDS011;16877;48.810;9.282;2023-08-20T13:31:30;4.40;;;4.00;;
1366;SDS011;16877;48.810;9.282;2023-08-20T13:33:58;5.22;;;4.20;;
1366;SDS011;16877;48.810;9.282;2023-08-20T13:36:25;10.63;;;5.18;;
1366;SDS011;16877;48.810;9.282;2023-08-20T13:38:54;5.55;;;4.47;;
1366;SDS011;16877;48.810;9.282;2023-08-20T13:41:22;4.38;;;3.78;;
1366;SDS011;16877;48.810;9.282;2023-08-20T13:43:51;4.35;;;3.95;;
1366;SDS011;16877;48.810;9.282;2023-08-20T13:46:19;6.30;;;4.95;;
1366;SDS011;16877;48.810;9.282;2023-08-20T13:48:47;4.95;;;4.43;;
1366;SDS011;16877;48.810;9.282;2023-08-20T13:51:14;5.82;;;4.32;;
1366;SDS011;16877;48.810;9.282;2023-08-20T13:53:42;4.55;;;3.70;;
1366;SDS011;16877;48.810;9.282;2023-08-20T13:56:11;4.82;;;4.00;;
1366;SDS011;16877;48.810;9.282;2023-08-20T13:58:39;4.32;;;3.83;;
1366;SDS011;16877;48.810;9.282;2023-08-20T14:01:07;4.85;;;4.38;;
1366;SDS011;16877;48.810;9.282;2023-08-20T14:03:38;5.43;;;4.93;;
1366;SDS011;16877;48.810;9.282;2023-08-20T14:06:06;4.35;;;3.50;;
1366;SDS011;16877;48.810;9.282;2023-08-20T14:08:33;5.35;;;4.10;;
1366;SDS011;16877;48.810;9.282;2023-08-20T14:11:04;4.00;;;3.60;;
1366;SDS011;16877;48.810;9.282;2023-08-20T14:13:33;4.35;;;3.90;;
1366;SDS011;16877;48.810;9.282;2023-08-20T14:16:02;4.35;;;3.95;;
1366;SDS011;16877;48.810;9.282;2023-08-20T14:18:30;4.20;;;3.80;;
1366;SDS011;16877;48.810;9.282;2023-08-20T14:20:57;4.43;;;3.95;;
1366;SDS011;16877;48.810;9.282;2023-08-20T14:23:28;4.82;;;4.32;;
1366;SDS011;16877;48.810;9.282;2023-08-20T14:25:57;6.10;;;4.57;;
1366;SDS011;16877;48.810;9.282;2023-08-20T14:28:41;4.43;;;3.83;;
1366;SDS011;16877;48.810;9.282;2023-08-20T14:31:08;5.05;;;4.13;;
1366;SDS011;16877;48.810;9.282;2023-08-20T14:33:35;5.75;;;4.07;;
1366;SDS011;16877;48.810;9.282;2023-08-20T14:36:03;4.50;;;4.03;;
1366;SDS011;16877;48.810;9.282;2023-08-20T14:38:33;5.00;;;4.38;;
1366;SDS011;16877;48.810;9.282;2023-08-20T14:41:01;4.80;;;4.03;;
1366;SDS011;16877;48.810;9.282;2023-08-20T14:43:47;3.92;;;3.53;;
1366;SDS011;16877;48.810;9.282;2023-08-20T14:46:15;4.47;;;4.07;;
1366;SDS011;16877;48.810;9.282;2023-08-20T14:48:42;4.53;;;4.07;;
1366;SDS011;16877;48.810;9.282;2023-08-20T14:51:10;4.45;;;4.05;;
1366;SDS011;16877;48.810;9.282;2023-08-20T14:53:37;4.57;;;4.18;;
1366;SDS011;16877;48.810;9.282;2023-08-20T14:56:05;4.38;;;3.60;;
1366;SDS011;16877;48.810;9.282;2023-08-20T14:58:32;6.13;;;4.65;;
1366;SDS011;16877;48.810;9.282;2023-08-20T15:01:05;4.25;;;3.85;;
1366;SDS011;16877;48.810;9.282;2023-08-20T15:03:33;6.32;;;4.43;;
1366;SDS011;16877;48.810;9.282;2023-08-20T15:06:00;5.40;;;4.80;;
1366;SDS011;16877;48.810;9.282;2023-08-20T15:08:28;5.07;;;4.40;;
1366;SDS011;16877;48.810;9.282;2023-08-20T15:10:57;5.25;;;4.35;;